Time;durP1;ratioP1;P1;durP2;ratioP2;P2;SDS_P1;SDS_P2;PMS_P1;PMS_P2;Temp;Humidity;BMP_temperature;BMP_pressure;BME280_temperature;BME280_humidity;BME280_pressure;Samples;Min_cycle;Max_cycle;Signal;HPM_P1;HPM_P2
2021/09/27 00:01:26;;;;;;;11.48;8.80;;;17.10;99.90;;;;;;4896641;29;20140;-78
2021/09/27 00:03:53;;;;;;;11.25;8.02;;;17.00;99.90;;;;;;4897256;29;20052;-79
2021/09/27 00:06:21;;;;;;;12.10;8.27;;;17.00;99.90;;;;;;4896562;29;20132;-78
2021/09/27 00:08:48;;;;;;;10.85;8.02;;;17.00;99.90;;;;;;4897582;29;20147;-78
2021/09/27 00:11:21;;;;;;;11.85;8.48;;;17.00;99.90;;;;;;4896979;29;20127;-77
2021/09/27 00:13:53;;;;;;;11.63;8.10;;;17.00;99.90;;;;;;4897545;29;20056;-79
2021/09/27 00:16:20;;;;;;;10.45;8.18;;;16.90;99.90;;;;;;4897397;29;20056;-80
2021/09/27 00:18:47;;;;;;;11.40;8.88;;;16.90;99.90;;;;;;4897348;29;20080;-79
2021/09/27 00:21:20;;;;;;;13.60;8.93;;;17.00;99.90;;;;;;4897195;29;20055;-79
2021/09/27 00:23:48;;;;;;;12.55;9.52;;;16.90;99.90;;;;;;4897183;29;20053;-79
2021/09/27 00:26:18;;;;;;;12.30;9.30;;;16.90;99.90;;;;;;4897156;29;20418;-78
2021/09/27 00:28:45;;;;;;;13.00;9.32;;;16.90;99.90;;;;;;4896509;29;20143;-77
2021/09/27 00:31:13;;;;;;;11.43;8.50;;;17.00;99.90;;;;;;4897103;29;20116;-79
2021/09/27 00:33:41;;;;;;;13.00;9.63;;;16.90;99.90;;;;;;4897128;29;20128;-80
2021/09/27 00:36:08;;;;;;;12.57;8.98;;;17.00;99.90;;;;;;4897205;29;20048;-79
2021/09/27 00:38:35;;;;;;;12.63;9.18;;;16.90;99.90;;;;;;4889776;29;20135;-79
2021/09/27 00:41:07;;;;;;;10.77;8.60;;;16.80;99.90;;;;;;4896823;29;20131;-79
2021/09/27 00:43:38;;;;;;;11.45;8.80;;;16.90;99.90;;;;;;4890614;29;20076;-80
2021/09/27 00:46:10;;;;;;;11.18;8.45;;;16.80;99.90;;;;;;4896893;29;20049;-79
2021/09/27 00:48:38;;;;;;;13.52;9.20;;;16.80;99.90;;;;;;4890726;29;20141;-79
2021/09/27 00:51:10;;;;;;;10.73;8.60;;;16.90;99.90;;;;;;4897065;29;20195;-80
2021/09/27 00:53:42;;;;;;;11.57;9.35;;;16.80;99.90;;;;;;4890829;29;20048;-79
2021/09/27 00:56:13;;;;;;;12.23;9.45;;;16.80;99.90;;;;;;4896624;29;20139;-79
2021/09/27 00:58:42;;;;;;;10.45;8.38;;;16.80;99.90;;;;;;4897308;29;20127;-79
2021/09/27 01:01:10;;;;;;;11.30;8.82;;;16.70;99.90;;;;;;4896871;29;20075;-81
2021/09/27 01:03:37;;;;;;;10.90;8.52;;;16.80;99.90;;;;;;4896694;29;20044;-79
2021/09/27 01:06:22;;;;;;;11.98;9.40;;;16.70;99.90;;;;;;4896971;29;20135;-79
2021/09/27 01:09:02;;;;;;;12.10;9.50;;;16.80;99.90;;;;;;4891827;29;20049;-79
2021/09/27 01:11:52;;;;;;;13.10;10.07;;;16.70;99.90;;;;;;4896867;29;20120;-80
2021/09/27 01:14:44;;;;;;;11.45;9.05;;;16.70;99.90;;;;;;4899764;29;20053;-79
2021/09/27 01:17:26;;;;;;;13.32;9.40;;;16.70;99.90;;;;;;4898279;29;20132;-79
2021/09/27 01:20:08;;;;;;;11.25;8.43;;;;;;;;;;4892785;29;20131;-81
2021/09/27 01:22:51;;;;;;;11.82;9.00;;;;;;;;;;4896338;29;20131;-79
2021/09/27 01:25:41;;;;;;;10.68;8.43;;;;;;;;;;4900157;29;20531;-80
2021/09/27 01:28:36;;;;;;;12.55;8.70;;;;;;;;;;4898799;29;20052;-78
2021/09/27 01:31:37;;;;;;;14.45;9.10;;;;;;;;;;4899710;29;20131;-79
2021/09/27 01:34:11;;;;;;;11.98;9.00;;;;;;;;;;4895076;29;20063;-79
2021/09/27 01:36:49;;;;;;;10.95;8.63;;;16.60;99.90;;;;;;4893072;29;20048;-79
2021/09/27 01:39:24;;;;;;;11.80;8.98;;;16.70;99.90;;;;;;4900044;29;20135;-79
2021/09/27 01:41:56;;;;;;;;;;;16.60;99.90;;;;;;4900433;29;20052;-79
2021/09/27 01:44:32;;;;;;;12.70;9.73;;;16.50;99.90;;;;;;4899692;29;19923;-79
2021/09/27 01:47:01;;;;;;;13.88;10.13;;;16.50;99.90;;;;;;4899854;29;20056;-78
2021/09/27 01:49:40;;;;;;;13.57;10.15;;;16.50;99.90;;;;;;4899102;29;20076;-80
2021/09/27 01:52:13;;;;;;;12.63;9.60;;;16.50;99.90;;;;;;4896571;29;20049;-79
2021/09/27 01:54:45;;;;;;;14.13;10.68;;;16.50;99.90;;;;;;4899550;29;20120;-80
2021/09/27 01:57:21;;;;;;;13.95;9.77;;;16.50;99.90;;;;;;4900033;29;20052;-79
2021/09/27 01:59:58;;;;;;;12.90;9.82;;;16.50;99.90;;;;;;4899515;29;20414;-79
2021/09/27 02:02:32;;;;;;;14.35;9.07;;;16.50;99.90;;;;;;4899323;29;20182;-79
2021/09/27 02:05:07;;;;;;;11.63;8.52;;;16.50;99.90;;;;;;4899052;29;20091;-78
2021/09/27 02:07:43;;;;;;;11.05;8.38;;;16.40;99.90;;;;;;4892517;29;20512;-79
2021/09/27 02:10:15;;;;;;;11.15;8.27;;;16.40;99.90;;;;;;4899585;29;20112;-78
2021/09/27 02:12:49;;;;;;;10.88;8.18;;;16.40;99.90;;;;;;4900376;29;20190;-79
2021/09/27 02:15:22;;;;;;;10.50;8.25;;;16.30;99.90;;;;;;4900179;29;20056;-80
2021/09/27 02:17:58;;;;;;;11.73;8.50;;;16.30;99.90;;;;;;4899574;29;20147;-80
2021/09/27 02:20:34;;;;;;;10.93;8.15;;;16.30;99.90;;;;;;4899499;29;20080;-80
2021/09/27 02:23:06;;;;;;;11.50;8.70;;;16.20;99.90;;;;;;4899214;29;20049;-80
2021/09/27 02:25:37;;;;;;;11.00;8.10;;;16.30;99.90;;;;;;4898500;29;20060;-80
2021/09/27 02:28:07;;;;;;;12.48;8.57;;;16.20;99.90;;;;;;4896593;29;20131;-80
2021/09/27 02:30:43;;;;;;;11.50;9.02;;;16.20;99.90;;;;;;4896859;29;20072;-78
2021/09/27 02:33:17;;;;;;;13.13;8.88;;;16.20;99.90;;;;;;4898711;29;20123;-79
2021/09/27 02:35:51;;;;;;;;;;;16.20;99.90;;;;;;4899766;29;20473;-78
2021/09/27 02:38:24;;;;;;;11.30;8.57;;;16.20;99.90;;;;;;4899282;29;20006;-80
2021/09/27 02:40:57;;;;;;;13.50;9.60;;;16.20;99.90;;;;;;4899046;29;20135;-80
2021/09/27 02:43:25;;;;;;;13.27;9.90;;;16.20;99.90;;;;;;4898462;29;20053;-80
2021/09/27 02:45:53;;;;;;;12.15;8.90;;;16.20;99.90;;;;;;4898983;29;20053;-79
2021/09/27 02:48:32;;;;;;;12.38;9.38;;;16.20;99.90;;;;;;4899216;29;20472;-80
2021/09/27 02:51:01;;;;;;;12.82;10.07;;;16.20;99.90;;;;;;4899421;29;20064;-80
2021/09/27 02:53:28;;;;;;;12.65;9.35;;;16.20;99.90;;;;;;4898692;29;20044;-79
2021/09/27 02:56:20;;;;;;;13.45;9.50;;;16.20;99.90;;;;;;4898672;29;20147;-80
2021/09/27 02:58:56;;;;;;;14.13;10.50;;;16.10;99.90;;;;;;4898344;29;20059;-80
2021/09/27 03:01:31;;;;;;;14.55;10.48;;;16.10;99.90;;;;;;4898791;29;20044;-80
2021/09/27 03:04:08;;;;;;;14.15;10.38;;;16.20;99.90;;;;;;4895902;29;20052;-77
2021/09/27 03:06:57;;;;;;;13.30;9.65;;;16.20;99.90;;;;;;4890198;29;20132;-78
2021/09/27 03:09:37;;;;;;;13.65;9.35;;;16.10;99.90;;;;;;4893877;29;20475;-79
2021/09/27 03:12:27;;;;;;;12.05;8.75;;;16.10;99.90;;;;;;4895882;29;20063;-80
2021/09/27 03:15:26;;;;;;;12.93;9.05;;;16.10;99.90;;;;;;4891269;29;20483;-78
2021/09/27 03:18:02;;;;;;;12.75;9.43;;;16.10;99.90;;;;;;4890815;29;20063;-79
2021/09/27 03:20:52;;;;;;;14.32;9.90;;;16.00;99.90;;;;;;4895334;29;20151;-80
2021/09/27 03:23:31;;;;;;;12.77;9.52;;;16.00;99.90;;;;;;4894690;29;20131;-79
2021/09/27 03:26:10;;;;;;;13.55;9.60;;;16.00;99.90;;;;;;4894861;29;20143;-79
2021/09/27 03:28:51;;;;;;;13.90;9.80;;;16.00;99.90;;;;;;4887961;29;20072;-80
2021/09/27 03:31:26;;;;;;;12.93;9.65;;;15.90;99.90;;;;;;4894890;29;20099;-80
2021/09/27 03:34:03;;;;;;;11.93;8.93;;;;;;;;;;4895056;29;20139;-80
2021/09/27 03:36:55;;;;;;;12.80;9.43;;;;;;;;;;4894696;29;20056;-79
2021/09/27 03:39:32;;;;;;;13.45;9.35;;;;;;;;;;4895265;29;20156;-79
2021/09/27 03:42:03;;;;;;;13.02;9.80;;;;;;;;;;4894742;29;20151;-79
2021/09/27 03:44:38;;;;;;;12.50;9.57;;;;;;;;;;4894452;29;20058;-77
2021/09/27 03:47:21;;;;;;;13.75;10.18;;;;;;;;;;4895298;29;20136;-76
2021/09/27 03:49:55;;;;;;;13.13;9.90;;;;;;;;;;4894453;29;20052;-80
2021/09/27 03:52:28;;;;;;;13.33;9.77;;;;;;;;;;4894016;29;20045;-78
2021/09/27 03:55:01;;;;;;;13.02;9.65;;;;;;;;;;4894421;29;20651;-80
2021/09/27 03:57:32;;;;;;;13.38;9.98;;;;;;;;;;4895178;29;20151;-80
2021/09/27 04:00:03;;;;;;;12.75;9.70;;;;;;;;;;4894853;29;20087;-78
2021/09/27 04:02:37;;;;;;;14.38;10.40;;;;;;;;;;4897170;29;20079;-78
2021/09/27 04:05:06;;;;;;;;;;;;;;;;;;4897914;29;20056;-80
2021/09/27 04:07:48;;;;;;;13.15;9.48;;;;;;;;;;4896959;29;19930;-76
2021/09/27 04:10:23;;;;;;;13.93;10.20;;;;;;;;;;4897896;29;20124;-79
2021/09/27 04:13:09;;;;;;;13.25;9.93;;;;;;;;;;4898854;29;20139;-77
2021/09/27 04:15:45;;;;;;;12.52;9.82;;;;;;;;;;4892578;29;20462;-79
2021/09/27 04:18:19;;;;;;;13.85;9.98;;;;;;;;;;4898910;29;20144;-79
2021/09/27 04:20:56;;;;;;;13.43;9.77;;;;;;;;;;4899076;29;20567;-80
2021/09/27 04:23:29;;;;;;;13.02;9.65;;;;;;;;;;4897886;29;20052;-79
2021/09/27 04:26:04;;;;;;;12.68;9.63;;;;;;;;;;4897862;29;20053;-76
2021/09/27 04:28:56;;;;;;;13.85;10.20;;;;;;;;;;4896884;29;20055;-78
2021/09/27 04:31:35;;;;;;;12.65;9.27;;;;;;;;;;4896137;29;20161;-80
2021/09/27 04:34:30;;;;;;;13.15;9.70;;;;;;;;;;4891907;29;20053;-81
2021/09/27 04:36:58;;;;;;;13.48;10.43;;;;;;;;;;4886119;29;20128;-80
2021/09/27 04:39:29;;;;;;;15.48;10.05;;;;;;;;;;4896705;29;21906;-81
2021/09/27 04:42:25;;;;;;;13.85;10.10;;;;;;;;;;4897680;29;20128;-80
2021/09/27 04:45:18;;;;;;;12.55;9.30;;;;;;;;;;4897321;29;20101;-79
2021/09/27 04:47:57;;;;;;;12.90;9.60;;;;;;;;;;4892730;29;20484;-78
2021/09/27 04:50:34;;;;;;;13.88;9.18;;;;;;;;;;4901927;29;20135;-77
2021/09/27 04:53:11;;;;;;;12.85;9.45;;;;;;;;;;4900724;29;20614;-78
2021/09/27 04:55:55;;;;;;;13.90;9.90;;;;;;;;;;4902022;29;20396;-76
2021/09/27 04:58:47;;;;;;;12.82;9.15;;;;;;;;;;4902644;29;20080;-78
2021/09/27 05:01:35;;;;;;;13.35;9.98;;;;;;;;;;4897004;29;20091;-79
2021/09/27 05:04:28;;;;;;;12.75;9.70;;;;;;;;;;4890254;29;20053;-76
2021/09/27 05:07:24;;;;;;;13.35;9.75;;;;;;;;;;4884492;29;20127;-80
2021/09/27 05:10:04;;;;;;;12.90;8.88;;;;;;;;;;4885049;29;20136;-79
2021/09/27 05:12:54;;;;;;;13.18;8.95;;;;;;;;;;4896274;29;20110;-80
2021/09/27 05:15:37;;;;;;;12.02;8.90;;;;;;;;;;4896556;29;20060;-78
2021/09/27 05:18:20;;;;;;;12.25;9.52;;;;;;;;;;4883472;29;20061;-80
2021/09/27 05:21:00;;;;;;;13.15;9.15;;;;;;;;;;4888915;29;20140;-79
2021/09/27 05:23:32;;;;;;;13.40;9.73;;;;;;;;;;4895022;29;20124;-78
2021/09/27 05:26:36;;;;;;;15.50;9.52;;;;;;;;;;4916703;29;20164;-79
2021/09/27 05:29:25;;;;;;;15.65;9.73;;;;;;;;;;4882796;29;20410;-79
2021/09/27 05:32:24;;;;;;;13.65;9.77;;;;;;;;;;4899787;29;20059;-79
2021/09/27 05:35:11;;;;;;;11.65;8.98;;;;;;;;;;4895522;29;20140;-76
2021/09/27 05:37:47;;;;;;;12.68;9.48;;;;;;;;;;4893257;29;20057;-80
2021/09/27 05:40:36;;;;;;;12.52;8.90;;;;;;;;;;4891728;29;20045;-80
2021/09/27 05:43:20;;;;;;;11.60;8.82;;;;;;;;;;4889182;29;20060;-78
2021/09/27 05:45:55;;;;;;;13.02;9.50;;;;;;;;;;4889924;29;20430;-80
2021/09/27 05:48:26;;;;;;;;;;;;;;;;;;4890565;29;20044;-79
2021/09/27 05:50:58;;;;;;;13.32;9.02;;;;;;;;;;4883809;29;20014;-76
2021/09/27 05:53:30;;;;;;;10.88;8.43;;;;;;;;;;4889674;29;20807;-80
2021/09/27 05:56:02;;;;;;;13.15;9.10;;;;;;;;;;4883037;29;20049;-78
2021/09/27 05:58:33;;;;;;;13.35;9.25;;;;;;;;;;4893026;29;20463;-78
2021/09/27 06:01:03;;;;;;;13.02;9.32;;;;;;;;;;4898536;29;20044;-78
2021/09/27 06:03:48;;;;;;;15.48;9.90;;;;;;;;;;4893023;29;20499;-79
2021/09/27 06:06:26;;;;;;;14.18;10.07;;;;;;;;;;4893489;29;20056;-77
2021/09/27 06:09:02;;;;;;;13.98;10.57;;;;;;;;;;4893128;29;20415;-79
2021/09/27 06:11:33;;;;;;;14.40;10.55;;;;;;;;;;4882084;29;20060;-78
2021/09/27 06:14:01;;;;;;;14.13;10.15;;;;;;;;;;4891567;29;20135;-79
2021/09/27 06:16:39;;;;;;;13.90;9.77;;;;;;;;;;4889602;29;20080;-77
2021/09/27 06:19:17;;;;;;;14.88;10.02;;;;;;;;;;4889519;29;20053;-79
2021/09/27 06:22:09;;;;;;;13.65;10.02;;;;;;;;;;4897247;29;20049;-81
2021/09/27 06:24:45;;;;;;;17.00;10.98;;;;;;;;;;4898971;29;20517;-76
2021/09/27 06:27:19;;;;;;;15.55;10.68;;;;;;;;;;4898303;29;20273;-79
2021/09/27 06:30:06;;;;;;;12.47;9.40;;;;;;;;;;4901584;29;20135;-78
2021/09/27 06:32:39;;;;;;;13.73;10.02;;;;;;;;;;4883119;29;20381;-78
2021/09/27 06:35:15;;;;;;;12.85;9.25;;;;;;;;;;4895027;29;20063;-76
2021/09/27 06:37:43;;;;;;;12.95;9.35;;;;;;;;;;4891176;29;20073;-78
2021/09/27 06:40:11;;;;;;;15.15;9.68;;;;;;;;;;4893107;29;20135;-78
2021/09/27 06:42:39;;;;;;;12.55;8.68;;;;;;;;;;4889890;29;20533;-78
2021/09/27 06:45:08;;;;;;;12.23;9.00;;;;;;;;;;4896637;29;20552;-79
2021/09/27 06:47:35;;;;;;;12.77;9.40;;;;;;;;;;4898440;29;20045;-79
2021/09/27 06:50:04;;;;;;;11.38;8.50;;;;;;;;;;4899036;29;20127;-79
2021/09/27 06:52:32;;;;;;;11.85;8.90;;;15.80;99.90;;;;;;4898406;29;20582;-79
2021/09/27 06:54:59;;;;;;;12.75;8.40;;;15.80;99.90;;;;;;4897833;29;20084;-79
2021/09/27 06:57:26;;;;;;;11.65;8.25;;;15.80;99.90;;;;;;4897896;29;20091;-79
2021/09/27 06:59:53;;;;;;;13.30;8.88;;;15.90;99.90;;;;;;4898583;29;20570;-78
2021/09/27 07:02:20;;;;;;;10.63;8.10;;;15.90;99.90;;;;;;4898325;29;20052;-77
2021/09/27 07:04:48;;;;;;;11.45;7.88;;;16.00;99.90;;;;;;4898824;29;20131;-77
2021/09/27 07:07:16;;;;;;;11.35;7.88;;;16.10;99.90;;;;;;4898410;29;20060;-80
2021/09/27 07:09:44;;;;;;;10.73;8.00;;;16.10;99.90;;;;;;4898456;29;20055;-78
2021/09/27 07:12:13;;;;;;;12.40;8.48;;;16.20;99.90;;;;;;4897821;29;20059;-79
2021/09/27 07:14:41;;;;;;;10.90;7.90;;;16.20;99.90;;;;;;4898317;29;20127;-80
2021/09/27 07:17:08;;;;;;;11.00;7.97;;;16.20;99.90;;;;;;4898040;29;20044;-79
2021/09/27 07:19:35;;;;;;;11.75;8.05;;;16.30;99.90;;;;;;4898339;29;20045;-80
2021/09/27 07:22:02;;;;;;;9.90;7.07;;;16.30;99.90;;;;;;4898565;29;20565;-79
2021/09/27 07:24:29;;;;;;;10.02;7.25;;;16.30;99.90;;;;;;4898035;29;20144;-78
2021/09/27 07:26:58;;;;;;;10.70;7.57;;;16.40;99.90;;;;;;4897947;29;20135;-80
2021/09/27 07:29:25;;;;;;;9.93;7.40;;;16.40;99.90;;;;;;4898344;29;20087;-80
2021/09/27 07:31:52;;;;;;;12.13;7.60;;;16.40;99.90;;;;;;4898315;29;20055;-80
2021/09/27 07:34:20;;;;;;;9.98;7.22;;;16.50;99.90;;;;;;4898293;29;20052;-78
2021/09/27 07:36:49;;;;;;;10.10;7.60;;;16.50;99.90;;;;;;4898082;29;20055;-80
2021/09/27 07:39:18;;;;;;;10.85;7.55;;;16.50;99.90;;;;;;4898255;29;20055;-77
2021/09/27 07:41:46;;;;;;;11.48;7.65;;;16.50;99.90;;;;;;4893217;29;20487;-77
2021/09/27 07:44:14;;;;;;;10.02;7.25;;;16.50;99.90;;;;;;4900590;29;20160;-80
2021/09/27 07:46:41;;;;;;;11.93;7.45;;;16.60;99.90;;;;;;4899929;29;20086;-80
2021/09/27 07:49:11;;;;;;;9.15;7.00;;;16.60;99.90;;;;;;4897890;29;20493;-79
2021/09/27 07:51:38;;;;;;;10.05;7.30;;;16.70;99.90;;;;;;4893317;29;20056;-77
2021/09/27 07:54:05;;;;;;;10.23;7.43;;;16.70;99.90;;;;;;4890976;29;20136;-81
2021/09/27 07:56:32;;;;;;;10.38;7.07;;;16.80;99.90;;;;;;4890778;29;20128;-79
2021/09/27 07:59:00;;;;;;;9.93;7.28;;;16.80;99.90;;;;;;4898261;29;20123;-76
2021/09/27 08:01:29;;;;;;;10.85;7.55;;;16.90;99.90;;;;;;4897926;29;20051;-79
2021/09/27 08:03:56;;;;;;;10.60;7.18;;;16.90;99.90;;;;;;4897921;29;20137;-80
2021/09/27 08:06:23;;;;;;;12.45;8.00;;;17.00;99.90;;;;;;4896878;29;20160;-78
2021/09/27 08:08:50;;;;;;;10.63;7.68;;;17.00;99.90;;;;;;4897386;29;20135;-76
2021/09/27 08:11:17;;;;;;;11.65;7.78;;;17.10;99.90;;;;;;4898261;29;20193;-75
2021/09/27 08:13:44;;;;;;;11.68;7.07;;;17.10;99.90;;;;;;4897807;29;20048;-80
2021/09/27 08:16:11;;;;;;;9.85;6.90;;;17.20;99.90;;;;;;4895325;29;20127;-78
2021/09/27 08:18:40;;;;;;;11.43;7.13;;;17.10;99.90;;;;;;4897597;29;20144;-78
2021/09/27 08:21:11;;;;;;;9.00;6.75;;;17.20;99.90;;;;;;4897978;29;20135;-80
2021/09/27 08:23:38;;;;;;;12.18;8.18;;;17.30;99.90;;;;;;4893259;29;20044;-78
2021/09/27 08:26:07;;;;;;;10.68;7.68;;;17.30;99.90;;;;;;4901600;29;20486;-77
2021/09/27 08:28:38;;;;;;;10.18;7.78;;;17.40;99.90;;;;;;4901273;29;20127;-78
2021/09/27 08:31:11;;;;;;;10.02;7.15;;;17.40;99.90;;;;;;4903030;29;20085;-79
2021/09/27 08:33:40;;;;;;;11.70;7.15;;;17.50;99.90;;;;;;4894411;29;20068;-78
2021/09/27 08:36:11;;;;;;;9.55;6.88;;;17.60;99.90;;;;;;4901889;29;20128;-79
2021/09/27 08:38:40;;;;;;;9.80;7.38;;;17.60;99.90;;;;;;4895828;29;20128;-79
2021/09/27 08:41:19;;;;;;;9.02;6.68;;;17.60;99.90;;;;;;4901264;29;20135;-78
2021/09/27 08:44:26;;;;;;;8.82;6.65;;;17.70;99.90;;;;;;4895684;29;20127;-78
2021/09/27 08:46:59;;;;;;;8.00;5.88;;;17.80;99.90;;;;;;4896173;29;20507;-79
2021/09/27 08:49:40;;;;;;;8.02;6.07;;;17.80;99.90;;;;;;4901297;29;20136;-79
2021/09/27 08:52:12;;;;;;;7.88;5.53;;;17.80;99.90;;;;;;4900532;29;20128;-78
2021/09/27 08:54:40;;;;;;;6.78;5.25;;;17.90;99.90;;;;;;4899617;29;20052;-76
2021/09/27 08:57:17;;;;;;;7.35;5.18;;;17.90;99.90;;;;;;4899640;29;20127;-79
2021/09/27 08:59:51;;;;;;;7.93;5.15;;;18.00;99.90;;;;;;4894480;29;20055;-79
2021/09/27 09:02:33;;;;;;;6.75;4.70;;;18.00;99.90;;;;;;4901186;29;20059;-79
2021/09/27 09:05:14;;;;;;;6.97;4.82;;;18.10;99.90;;;;;;4901352;29;20135;-78
2021/09/27 09:07:48;;;;;;;6.90;4.57;;;18.20;99.90;;;;;;4895302;29;20132;-76
2021/09/27 09:10:24;;;;;;;7.13;4.45;;;18.30;99.90;;;;;;4900849;29;20150;-80
2021/09/27 09:12:55;;;;;;;6.13;4.15;;;18.40;99.90;;;;;;4896816;29;20076;-80
2021/09/27 09:15:26;;;;;;;7.57;4.50;;;18.40;99.90;;;;;;4900282;29;20143;-79
2021/09/27 09:18:04;;;;;;;8.73;5.55;;;18.50;99.90;;;;;;4900421;29;20079;-78
2021/09/27 09:20:48;;;;;;;6.72;4.30;;;18.60;99.60;;;;;;4900992;29;20137;-80
2021/09/27 09:23:28;;;;;;;6.53;4.55;;;18.60;99.60;;;;;;4899826;29;20055;-79
2021/09/27 09:25:56;;;;;;;5.60;3.80;;;18.70;99.40;;;;;;4900910;29;20135;-78
2021/09/27 09:28:24;;;;;;;6.95;4.32;;;18.70;99.20;;;;;;4901041;29;20591;-78
2021/09/27 09:31:04;;;;;;;6.88;4.47;;;18.70;99.40;;;;;;4901091;29;20496;-78
2021/09/27 09:33:50;;;;;;;6.13;4.20;;;18.80;99.20;;;;;;4900796;29;20123;-79
2021/09/27 09:36:26;;;;;;;6.55;4.07;;;18.90;98.80;;;;;;4901164;29;20100;-78
2021/09/27 09:38:54;;;;;;;6.70;4.32;;;19.00;98.80;;;;;;4901282;29;20563;-79
2021/09/27 09:41:22;;;;;;;8.20;4.82;;;19.00;98.80;;;;;;4900928;29;20151;-80
2021/09/27 09:43:52;;;;;;;5.50;3.80;;;19.10;98.90;;;;;;4901323;29;20131;-78
2021/09/27 09:46:31;;;;;;;5.28;3.80;;;19.20;98.40;;;;;;4899424;29;20048;-78
2021/09/27 09:49:05;;;;;;;5.20;3.30;;;19.20;97.70;;;;;;4899664;29;20060;-79
2021/09/27 09:51:39;;;;;;;5.50;3.78;;;19.30;97.80;;;;;;4901050;29;20131;-78
2021/09/27 09:54:17;;;;;;;;;;;19.40;97.70;;;;;;4900590;29;20128;-78
2021/09/27 09:56:49;;;;;;;4.90;3.00;;;19.40;97.80;;;;;;4890093;29;20356;-78
2021/09/27 09:59:24;;;;;;;4.63;3.00;;;19.50;97.20;;;;;;4900590;29;20139;-80
2021/09/27 10:01:55;;;;;;;4.80;2.97;;;19.50;97.00;;;;;;4900810;29;20143;-78
2021/09/27 10:04:27;;;;;;;6.18;3.20;;;19.60;96.90;;;;;;4900629;29;20494;-78
2021/09/27 10:07:10;;;;;;;6.03;3.55;;;19.60;96.70;;;;;;4900639;29;20078;-79
2021/09/27 10:09:47;;;;;;;6.93;3.40;;;19.70;96.70;;;;;;4900857;29;20045;-78
2021/09/27 10:12:37;;;;;;;5.32;3.10;;;19.70;96.50;;;;;;4899101;29;20300;-78
2021/09/27 10:15:08;;;;;;;4.90;2.90;;;19.70;96.30;;;;;;4877607;29;20496;-78
2021/09/27 10:17:38;;;;;;;6.43;3.17;;;19.80;96.40;;;;;;4877975;29;20163;-79
2021/09/27 10:20:15;;;;;;;4.22;2.70;;;19.90;96.20;;;;;;4878630;29;20055;-78
2021/09/27 10:22:53;;;;;;;4.88;2.95;;;19.90;96.10;;;;;;4878659;29;20095;-78
2021/09/27 10:25:32;;;;;;;5.70;3.20;;;20.00;95.80;;;;;;4879027;29;20136;-78
2021/09/27 10:28:03;;;;;;;4.90;3.30;;;20.00;95.40;;;;;;4878287;29;20147;-79
2021/09/27 10:30:41;;;;;;;5.93;3.45;;;20.00;95.50;;;;;;4879067;29;20135;-77
2021/09/27 10:33:17;;;;;;;6.10;3.25;;;20.10;95.40;;;;;;4878324;29;20139;-80
2021/09/27 10:35:54;;;;;;;5.55;3.10;;;20.20;95.10;;;;;;4877796;29;20048;-79
2021/09/27 10:38:28;;;;;;;3.90;2.70;;;20.20;95.00;;;;;;4877822;29;20554;-76
2021/09/27 10:40:55;;;;;;;4.40;2.50;;;20.20;93.90;;;;;;4878278;29;20484;-80
2021/09/27 10:43:26;;;;;;;5.20;2.60;;;20.30;94.10;;;;;;4877999;29;20092;-79
2021/09/27 10:46:02;;;;;;;4.45;2.80;;;20.30;94.40;;;;;;4895376;29;20139;-80
2021/09/27 10:48:31;;;;;;;4.10;2.88;;;20.50;94.60;;;;;;4896512;29;20056;-79
2021/09/27 10:51:04;;;;;;;4.00;2.45;;;20.50;94.30;;;;;;4897528;29;20135;-77
2021/09/27 10:53:38;;;;;;;5.25;2.80;;;20.50;94.00;;;;;;4896405;29;20050;-79
2021/09/27 10:56:16;;;;;;;5.93;3.10;;;20.60;94.10;;;;;;4897211;29;20105;-81
2021/09/27 10:58:47;;;;;;;6.20;2.92;;;20.70;94.10;;;;;;4899761;29;20477;-79
2021/09/27 11:01:42;;;;;;;5.05;3.15;;;20.70;93.80;;;;;;4899581;29;20068;-79
2021/09/27 11:04:19;;;;;;;4.45;2.90;;;20.80;93.70;;;;;;4899340;29;20131;-78
2021/09/27 11:06:52;;;;;;;4.53;3.00;;;20.90;93.70;;;;;;4899766;29;20462;-80
2021/09/27 11:09:33;;;;;;;5.30;3.00;;;21.00;94.00;;;;;;4899620;29;20502;-79
2021/09/27 11:12:05;;;;;;;4.70;2.97;;;21.10;93.60;;;;;;4901387;29;20143;-77
2021/09/27 11:14:53;;;;;;;4.47;3.05;;;21.20;93.10;;;;;;4899992;29;20080;-78
2021/09/27 11:17:43;;;;;;;4.88;2.97;;;21.20;93.20;;;;;;4901551;29;20072;-78
2021/09/27 11:20:57;;;;;;;4.80;2.88;;;21.30;93.30;;;;;;4903201;29;20491;-78
2021/09/27 11:23:32;;;;;;;4.10;2.70;;;21.40;92.70;;;;;;4899979;29;20053;-79
2021/09/27 11:26:34;;;;;;;4.85;2.30;;;21.50;92.20;;;;;;4899187;29;20131;-79
2021/09/27 11:29:32;;;;;;;3.60;2.38;;;21.50;92.20;;;;;;4889105;29;20128;-79
2021/09/27 11:32:40;;;;;;;3.33;1.85;;;21.60;91.60;;;;;;4900754;29;20048;-79
2021/09/27 11:35:27;;;;;;;3.78;2.28;;;21.70;91.20;;;;;;4901603;29;20407;-77
2021/09/27 11:38:34;;;;;;;3.80;2.30;;;21.80;91.20;;;;;;4900533;29;20121;-81
2021/09/27 11:41:27;;;;;;;4.75;2.28;;;21.90;91.20;;;;;;4870332;29;20131;-79
2021/09/27 11:44:15;;;;;;;4.28;2.63;;;22.10;90.60;;;;;;4898968;29;20087;-78
2021/09/27 11:47:09;;;;;;;3.90;2.40;;;22.20;90.00;;;;;;4898607;29;20139;-77
2021/09/27 11:49:59;;;;;;;3.55;2.10;;;22.20;88.40;;;;;;4896143;29;20052;-80
2021/09/27 11:52:46;;;;;;;4.50;2.00;;;22.30;87.40;;;;;;4898400;29;20060;-78
2021/09/27 11:55:20;;;;;;;3.15;1.90;;;22.30;87.00;;;;;;4898664;29;20152;-79
2021/09/27 11:57:55;;;;;;;5.60;2.70;;;22.30;85.10;;;;;;4898429;29;20140;-80
2021/09/27 12:00:26;;;;;;;5.15;2.80;;;22.30;86.00;;;;;;4899115;29;20135;-78
2021/09/27 12:03:05;;;;;;;3.67;2.20;;;22.40;86.90;;;;;;4898808;29;20135;-77
2021/09/27 12:05:47;;;;;;;4.35;2.08;;;22.50;86.80;;;;;;4898150;29;20076;-79
2021/09/27 12:08:25;;;;;;;3.50;1.80;;;22.60;85.80;;;;;;4897974;29;20059;-79
2021/09/27 12:10:58;;;;;;;3.70;2.08;;;22.60;83.60;;;;;;4898848;29;20080;-78
2021/09/27 12:13:28;;;;;;;4.63;2.50;;;22.60;83.40;;;;;;4898500;29;20450;-78
2021/09/27 12:15:59;;;;;;;14.68;8.27;;;22.70;83.30;;;;;;4898822;29;20049;-78
2021/09/27 12:18:42;;;;;;;6.22;3.75;;;22.70;83.00;;;;;;4898130;29;20088;-78
2021/09/27 12:21:16;;;;;;;4.47;2.50;;;22.70;84.10;;;;;;4897979;29;20547;-78
2021/09/27 12:23:48;;;;;;;3.45;2.00;;;22.80;85.00;;;;;;4897998;29;20151;-78
2021/09/27 12:26:23;;;;;;;3.65;1.83;;;23.00;81.30;;;;;;4897644;29;20139;-79
2021/09/27 12:29:02;;;;;;;4.65;1.80;;;23.00;80.00;;;;;;4898145;29;20460;-79
2021/09/27 12:31:30;;;;;;;3.90;2.10;;;23.00;80.10;;;;;;4898516;29;20056;-78
2021/09/27 12:34:09;;;;;;;3.05;1.52;;;23.00;79.80;;;;;;4898223;29;20139;-79
2021/09/27 12:36:38;;;;;;;3.03;1.67;;;23.10;77.60;;;;;;4898114;29;20049;-80
2021/09/27 12:39:08;;;;;;;5.40;1.75;;;23.10;77.90;;;;;;4898736;29;20060;-78
2021/09/27 12:41:37;;;;;;;3.25;1.80;;;23.20;78.40;;;;;;4897821;29;20090;-78
2021/09/27 12:44:11;;;;;;;2.88;1.48;;;23.20;77.10;;;;;;4895296;29;20136;-78
2021/09/27 12:46:39;;;;;;;3.88;1.60;;;23.30;76.40;;;;;;4882430;29;20075;-78
2021/09/27 12:49:09;;;;;;;3.20;1.50;;;23.30;76.40;;;;;;4898500;29;20063;-78
2021/09/27 12:51:43;;;;;;;3.45;1.90;;;23.40;77.50;;;;;;4898083;29;20048;-81
2021/09/27 12:54:26;;;;;;;3.63;1.65;;;23.30;78.40;;;;;;4898552;29;20052;-80
2021/09/27 12:56:55;;;;;;;3.00;1.55;;;23.30;77.20;;;;;;4897720;29;20495;-78
2021/09/27 12:59:26;;;;;;;3.65;1.50;;;23.20;77.40;;;;;;4897961;29;20166;-79
2021/09/27 13:01:58;;;;;;;3.03;1.50;;;23.20;77.10;;;;;;4898378;29;20063;-76
2021/09/27 13:04:35;;;;;;;3.55;1.52;;;23.20;77.30;;;;;;4899522;29;20054;-79
2021/09/27 13:07:06;;;;;;;2.75;1.42;;;23.10;77.90;;;;;;4897851;29;20080;-78
2021/09/27 13:09:39;;;;;;;2.78;1.52;;;23.10;77.60;;;;;;4899609;29;20135;-79
2021/09/27 13:12:15;;;;;;;3.30;1.60;;;23.10;78.80;;;;;;4901517;29;20136;-79
2021/09/27 13:14:46;;;;;;;2.92;1.67;;;23.20;79.00;;;;;;4901272;29;20594;-80
2021/09/27 13:17:20;;;;;;;3.20;1.77;;;23.20;78.50;;;;;;4900385;29;20410;-79
2021/09/27 13:19:51;;;;;;;4.60;1.85;;;23.20;78.80;;;;;;4901281;29;20529;-79
2021/09/27 13:22:26;;;;;;;3.10;1.52;;;23.20;78.40;;;;;;4901492;29;20135;-79
2021/09/27 13:25:06;;;;;;;3.55;1.55;;;23.20;78.30;;;;;;4901526;29;20049;-79
2021/09/27 13:27:40;;;;;;;3.28;1.80;;;23.20;79.10;;;;;;4901171;29;20053;-80
2021/09/27 13:30:20;;;;;;;3.90;1.92;;;23.10;78.80;;;;;;4898869;29;20055;-79
2021/09/27 13:32:55;;;;;;;4.18;1.60;;;23.00;78.70;;;;;;4878465;29;20049;-78
2021/09/27 13:35:31;;;;;;;3.38;1.60;;;23.00;78.50;;;;;;4878307;29;20526;-79
2021/09/27 13:38:08;;;;;;;2.58;1.30;;;22.90;79.20;;;;;;4884967;29;20506;-79
2021/09/27 13:40:43;;;;;;;3.30;1.48;;;22.90;78.80;;;;;;4897514;29;20079;-80
2021/09/27 13:43:25;;;;;;;2.70;1.40;;;22.80;79.00;;;;;;4896756;29;20472;-78
2021/09/27 13:45:57;;;;;;;3.70;1.75;;;22.80;79.00;;;;;;4897121;29;20053;-79
2021/09/27 13:48:26;;;;;;;3.28;1.50;;;22.70;79.40;;;;;;4896708;29;20080;-79
2021/09/27 13:50:55;;;;;;;4.00;1.95;;;22.70;79.20;;;;;;4896889;29;20048;-78
2021/09/27 13:53:28;;;;;;;3.00;1.50;;;22.70;80.00;;;;;;4897089;29;20482;-79